Time;durP1;ratioP1;P1;durP2;ratioP2;P2;SDS_P1;SDS_P2;PMS_P1;PMS_P2;Temp;Humidity;BMP_temperature;BMP_pressure;BME280_temperature;BME280_humidity;BME280_pressure;Samples;Min_cycle;Max_cycle;Signal;HPM_P1;HPM_P2
2022/10/21 00:01:10;;;;;;;10.38;7.57;;;9.10;99.90;;;;;;5024973;28;20029;-58
2022/10/21 00:03:36;;;;;;;10.45;8.10;;;9.20;99.90;;;;;;5021521;28;20025;-53
2022/10/21 00:06:03;;;;;;;15.27;8.18;;;9.20;99.90;;;;;;5021833;28;20370;-53
2022/10/21 00:08:29;;;;;;;10.38;8.18;;;9.20;99.90;;;;;;5022413;28;20052;-52
2022/10/21 00:11:00;;;;;;;10.43;8.10;;;9.20;99.90;;;;;;5013751;28;20477;-52
2022/10/21 00:13:27;;;;;;;10.88;7.75;;;9.20;99.90;;;;;;5017456;28;20131;-55
2022/10/21 00:16:01;;;;;;;11.98;8.15;;;9.20;99.90;;;;;;5013056;28;20408;-51
2022/10/21 00:18:28;;;;;;;12.85;8.18;;;9.20;99.90;;;;;;5022051;28;20025;-53
2022/10/21 00:20:54;;;;;;;10.52;8.20;;;9.20;99.90;;;;;;5019367;28;20036;-54
2022/10/21 00:23:19;;;;;;;12.65;8.60;;;9.20;99.90;;;;;;5021614;28;20018;-51
2022/10/21 00:25:45;;;;;;;11.10;7.95;;;9.20;99.90;;;;;;5014347;28;20109;-52
2022/10/21 00:28:10;;;;;;;9.82;7.25;;;9.20;99.90;;;;;;5019656;28;20075;-52
2022/10/21 00:30:36;;;;;;;9.70;8.23;;;9.20;99.90;;;;;;5018063;28;20059;-56
2022/10/21 00:33:01;;;;;;;15.30;8.35;;;9.20;99.90;;;;;;5014199;28;20816;-51
2022/10/21 00:35:27;;;;;;;13.05;8.02;;;9.20;99.90;;;;;;5017193;28;20021;-53
2022/10/21 00:37:53;;;;;;;14.27;8.25;;;9.20;99.90;;;;;;5014261;28;20484;-52
2022/10/21 00:40:18;;;;;;;16.27;8.77;;;9.20;99.90;;;;;;5021939;28;20037;-55
2022/10/21 00:42:44;;;;;;;12.73;8.25;;;9.20;99.90;;;;;;5021568;28;20037;-52
2022/10/21 00:45:22;;;;;;;18.85;9.32;;;9.10;99.90;;;;;;5013546;28;20391;-51
2022/10/21 00:47:47;;;;;;;10.02;7.82;;;9.20;99.90;;;;;;5025715;28;20029;-51
2022/10/21 00:50:23;;;;;;;14.02;8.20;;;9.10;99.90;;;;;;5018374;28;20021;-53
2022/10/21 00:52:49;;;;;;;20.55;9.52;;;9.10;99.90;;;;;;5015275;28;20105;-54
2022/10/21 00:55:15;;;;;;;9.77;7.47;;;9.10;99.90;;;;;;5019674;28;20121;-55
2022/10/21 00:57:41;;;;;;;11.52;8.20;;;9.10;99.90;;;;;;5015686;28;20030;-51
2022/10/21 01:00:07;;;;;;;13.65;8.75;;;9.10;99.90;;;;;;5017688;28;20556;-52
2022/10/21 01:02:32;;;;;;;14.40;8.68;;;9.10;99.90;;;;;;5015514;28;20503;-52
2022/10/21 01:05:00;;;;;;;24.50;9.40;;;9.10;99.90;;;;;;5034958;28;20026;-55
2022/10/21 01:07:26;;;;;;;14.75;9.18;;;9.10;99.90;;;;;;5017593;28;20096;-55
2022/10/21 01:09:52;;;;;;;19.05;8.50;;;9.10;99.90;;;;;;5016300;28;20030;-53
2022/10/21 01:12:31;;;;;;;10.93;8.40;;;9.10;99.90;;;;;;5020943;28;20040;-56
2022/10/21 01:15:06;;;;;;;16.00;8.38;;;9.10;99.90;;;;;;5017872;28;20200;-53
2022/10/21 01:17:42;;;;;;;16.33;8.35;;;9.10;99.90;;;;;;5020017;28;20102;-55
2022/10/21 01:20:18;;;;;;;12.55;9.05;;;9.10;99.90;;;;;;5019575;28;20025;-54
2022/10/21 01:23:05;;;;;;;16.67;9.20;;;9.10;99.90;;;;;;5016834;28;20037;-55
2022/10/21 01:25:53;;;;;;;14.95;8.73;;;9.10;99.90;;;;;;5013704;28;20032;-53
2022/10/21 01:28:47;;;;;;;13.57;9.80;;;9.10;99.90;;;;;;5011988;28;20033;-54
2022/10/21 01:31:45;;;;;;;11.68;8.52;;;9.10;99.90;;;;;;5009994;28;20041;-57
2022/10/21 01:34:23;;;;;;;15.75;9.35;;;9.10;99.90;;;;;;5022244;28;20018;-52
2022/10/21 01:37:01;;;;;;;13.20;9.27;;;9.10;99.90;;;;;;5039477;23;20033;-50
2022/10/21 01:39:46;;;;;;;15.25;9.32;;;9.10;99.90;;;;;;5004648;28;20022;-49
2022/10/21 01:42:43;;;;;;;16.00;9.75;;;9.10;99.90;;;;;;5020998;28;20087;-49
2022/10/21 01:45:20;;;;;;;12.68;9.38;;;9.20;99.90;;;;;;5007930;28;20034;-53
2022/10/21 01:47:50;;;;;;;10.35;8.80;;;9.20;99.90;;;;;;5009620;28;20030;-48
2022/10/21 01:50:30;;;;;;;12.45;9.13;;;9.20;99.90;;;;;;4998396;28;20435;-48
2022/10/21 01:53:04;;;;;;;12.57;9.70;;;9.20;99.90;;;;;;5004040;28;20081;-48
2022/10/21 01:55:31;;;;;;;11.02;9.00;;;9.20;99.90;;;;;;5007921;28;20034;-51
2022/10/21 01:58:07;;;;;;;13.55;10.35;;;9.20;99.90;;;;;;5003964;28;20038;-52
2022/10/21 02:00:35;;;;;;;14.85;9.80;;;9.20;99.90;;;;;;5005626;28;20370;-56
2022/10/21 02:03:06;;;;;;;12.07;9.32;;;9.20;99.90;;;;;;5002203;28;20125;-52
2022/10/21 02:05:32;;;;;;;14.43;9.52;;;9.20;99.90;;;;;;5009389;28;20061;-49
2022/10/21 02:07:58;;;;;;;11.75;9.95;;;9.20;99.90;;;;;;5007997;28;20406;-48
2022/10/21 02:10:29;;;;;;;16.80;9.18;;;9.20;99.90;;;;;;5006158;28;20152;-49
2022/10/21 02:12:58;;;;;;;17.02;9.88;;;9.20;99.90;;;;;;5000792;28;20057;-49
2022/10/21 02:15:26;;;;;;;13.20;9.73;;;9.20;99.90;;;;;;5002434;28;20106;-50
2022/10/21 02:17:57;;;;;;;15.85;10.65;;;9.20;99.90;;;;;;5003456;28;20042;-52
2022/10/21 02:20:26;;;;;;;13.68;9.45;;;9.20;99.90;;;;;;5002872;28;20034;-49
2022/10/21 02:22:52;;;;;;;12.52;9.63;;;9.20;99.90;;;;;;5001426;28;20076;-48
2022/10/21 02:25:24;;;;;;;13.65;10.30;;;9.20;99.90;;;;;;5000025;28;20030;-49
2022/10/21 02:27:51;;;;;;;13.68;10.55;;;9.30;99.90;;;;;;5000742;28;20400;-48
2022/10/21 02:30:17;;;;;;;16.27;10.65;;;9.30;99.90;;;;;;4999689;28;20026;-48
2022/10/21 02:32:51;;;;;;;20.95;10.57;;;9.30;99.90;;;;;;5003883;28;20604;-48
2022/10/21 02:35:28;;;;;;;13.20;9.88;;;9.30;99.90;;;;;;4999221;28;20100;-48
2022/10/21 02:37:59;;;;;;;16.63;10.65;;;9.30;99.90;;;;;;5005983;28;20195;-48
2022/10/21 02:40:44;;;;;;;14.75;10.23;;;9.30;99.90;;;;;;4996236;28;20445;-48
2022/10/21 02:43:28;;;;;;;15.02;10.02;;;9.30;99.90;;;;;;5003807;28;20436;-49
2022/10/21 02:45:58;;;;;;;15.77;9.80;;;9.20;99.90;;;;;;4994834;28;20041;-50
2022/10/21 02:48:24;;;;;;;13.60;9.93;;;9.30;99.90;;;;;;5004319;28;20022;-48
2022/10/21 02:50:49;;;;;;;14.98;10.80;;;9.20;99.90;;;;;;5000788;28;20488;-49
2022/10/21 02:53:15;;;;;;;19.55;10.52;;;9.20;99.90;;;;;;5002033;28;20028;-49
2022/10/21 02:55:41;;;;;;;14.88;9.80;;;9.20;99.90;;;;;;5002587;28;20570;-49
2022/10/21 02:58:06;;;;;;;12.50;10.45;;;9.20;99.90;;;;;;5002007;28;20031;-50
2022/10/21 03:00:32;;;;;;;15.35;10.68;;;9.30;99.90;;;;;;4993718;28;20551;-48
2022/10/21 03:02:57;;;;;;;14.38;10.18;;;9.20;99.90;;;;;;4992695;28;20041;-48
2022/10/21 03:05:23;;;;;;;13.85;10.40;;;9.30;99.90;;;;;;4994394;28;20401;-51
2022/10/21 03:07:49;;;;;;;14.52;10.48;;;9.20;99.90;;;;;;4992864;28;20054;-48
2022/10/21 03:10:15;;;;;;;14.52;10.98;;;9.20;99.90;;;;;;5006169;28;20026;-53
2022/10/21 03:12:40;;;;;;;14.02;10.63;;;9.20;99.90;;;;;;5014543;28;20493;-48
2022/10/21 03:15:07;;;;;;;18.98;9.77;;;9.20;99.90;;;;;;5006314;28;20097;-49
2022/10/21 03:17:32;;;;;;;13.80;10.07;;;9.20;99.90;;;;;;4999833;28;20109;-49
2022/10/21 03:19:58;;;;;;;18.33;10.98;;;9.20;99.90;;;;;;5006919;28;20168;-48
2022/10/21 03:22:23;;;;;;;15.88;10.95;;;9.20;99.90;;;;;;5000338;28;20022;-50
2022/10/21 03:24:49;;;;;;;15.48;10.77;;;9.20;99.90;;;;;;4993572;28;20030;-49
2022/10/21 03:27:15;;;;;;;15.00;10.15;;;9.20;99.90;;;;;;5001229;28;20121;-48
2022/10/21 03:29:40;;;;;;;15.20;10.48;;;9.20;99.90;;;;;;5012697;28;20419;-50
2022/10/21 03:32:06;;;;;;;15.90;10.85;;;9.20;99.90;;;;;;5004916;28;20129;-51
2022/10/21 03:34:31;;;;;;;11.68;9.75;;;9.20;99.90;;;;;;4982702;28;20125;-48
2022/10/21 03:36:57;;;;;;;17.85;11.38;;;9.20;99.90;;;;;;5012139;28;20084;-48
2022/10/21 03:39:23;;;;;;;12.75;10.60;;;9.20;99.90;;;;;;4995877;28;20164;-49
2022/10/21 03:41:48;;;;;;;16.88;10.95;;;9.20;99.90;;;;;;4990582;28;20026;-49
2022/10/21 03:44:14;;;;;;;16.77;11.27;;;9.30;99.90;;;;;;5000016;28;20527;-49
2022/10/21 03:46:39;;;;;;;14.50;9.93;;;9.30;99.90;;;;;;4999810;28;20418;-51
2022/10/21 03:49:05;;;;;;;20.33;12.13;;;9.30;99.90;;;;;;5001436;28;20030;-49
2022/10/21 03:51:31;;;;;;;12.82;10.23;;;9.30;99.90;;;;;;5000993;28;20026;-51
2022/10/21 03:53:56;;;;;;;18.02;9.70;;;9.30;99.90;;;;;;4997129;28;20062;-52
2022/10/21 03:56:22;;;;;;;11.65;9.75;;;9.20;99.90;;;;;;4992741;28;20401;-48
2022/10/21 03:58:47;;;;;;;13.27;10.13;;;9.30;99.90;;;;;;4998148;28;20022;-49
2022/10/21 04:01:13;;;;;;;15.25;10.68;;;9.20;99.90;;;;;;5005473;28;20118;-48
2022/10/21 04:03:40;;;;;;;14.90;10.73;;;9.20;99.90;;;;;;4998228;28;20018;-49
2022/10/21 04:06:06;;;;;;;13.35;10.27;;;9.20;99.90;;;;;;5005807;28;20030;-49
2022/10/21 04:08:31;;;;;;;16.80;9.68;;;9.20;99.90;;;;;;4998794;28;20493;-50
2022/10/21 04:10:57;;;;;;;12.25;9.77;;;9.20;99.90;;;;;;4999979;28;20062;-51
2022/10/21 04:13:23;;;;;;;14.82;10.70;;;9.20;99.90;;;;;;5002468;28;20018;-49
2022/10/21 04:15:48;;;;;;;13.57;10.23;;;9.20;99.90;;;;;;4998904;28;20030;-51
2022/10/21 04:18:14;;;;;;;22.35;11.65;;;9.20;99.90;;;;;;5005616;28;20018;-50
2022/10/21 04:20:40;;;;;;;17.13;11.07;;;9.20;99.90;;;;;;4995780;28;20338;-49
2022/10/21 04:23:05;;;;;;;15.68;11.35;;;9.20;99.90;;;;;;5006757;28;20036;-49
2022/10/21 04:25:31;;;;;;;14.48;10.75;;;9.20;99.90;;;;;;4998629;28;20527;-53
2022/10/21 04:27:56;;;;;;;13.80;10.07;;;9.20;99.90;;;;;;5014790;28;20160;-48
2022/10/21 04:30:22;;;;;;;15.77;11.40;;;9.10;99.90;;;;;;5004205;28;20045;-51
2022/10/21 04:32:49;;;;;;;14.70;10.27;;;9.10;99.90;;;;;;4998875;28;20071;-49
2022/10/21 04:35:16;;;;;;;16.02;10.60;;;9.20;99.90;;;;;;5004937;28;20061;-48
2022/10/21 04:37:42;;;;;;;17.65;11.50;;;9.10;99.90;;;;;;4998739;28;20444;-48
2022/10/21 04:40:08;;;;;;;15.20;9.75;;;9.10;99.90;;;;;;5003067;28;20022;-48
2022/10/21 04:42:33;;;;;;;16.20;11.40;;;9.10;99.90;;;;;;5001038;28;20030;-48
2022/10/21 04:44:59;;;;;;;14.88;10.80;;;9.10;99.90;;;;;;4998770;28;20034;-49
2022/10/21 04:47:24;;;;;;;11.43;9.95;;;9.10;99.90;;;;;;5003329;28;20065;-49
2022/10/21 04:49:50;;;;;;;16.60;10.80;;;9.10;99.90;;;;;;4998522;28;20050;-50
2022/10/21 04:52:15;;;;;;;13.77;10.50;;;9.10;99.90;;;;;;5004869;28;20022;-49
2022/10/21 04:54:41;;;;;;;19.48;10.27;;;9.00;99.90;;;;;;4997310;28;20532;-50
2022/10/21 04:57:06;;;;;;;15.10;10.10;;;9.00;99.90;;;;;;5005228;28;20527;-49
2022/10/21 04:59:32;;;;;;;16.90;10.70;;;9.00;99.90;;;;;;4998385;28;20079;-50
2022/10/21 05:01:58;;;;;;;18.27;11.20;;;9.00;99.90;;;;;;5014636;28;20030;-50
2022/10/21 05:04:23;;;;;;;13.18;10.05;;;9.00;99.90;;;;;;5003266;28;20367;-49
2022/10/21 05:06:49;;;;;;;16.27;9.77;;;9.00;99.90;;;;;;4998239;28;20042;-53
2022/10/21 05:09:14;;;;;;;14.20;10.43;;;8.90;99.90;;;;;;5001664;28;20071;-51
2022/10/21 05:11:40;;;;;;;16.50;9.55;;;9.00;99.90;;;;;;4998774;28;20022;-48
2022/10/21 05:14:06;;;;;;;17.08;10.77;;;9.00;99.90;;;;;;5016066;28;20544;-49
2022/10/21 05:16:31;;;;;;;14.43;10.02;;;8.90;99.90;;;;;;5000463;28;20022;-51
2022/10/21 05:18:57;;;;;;;22.83;10.80;;;8.90;99.90;;;;;;4999328;28;20485;-50
2022/10/21 05:21:23;;;;;;;14.48;10.35;;;8.90;99.90;;;;;;5001520;28;20030;-52
2022/10/21 05:23:48;;;;;;;13.32;10.57;;;8.90;99.90;;;;;;5001689;28;20038;-49
2022/10/21 05:26:14;;;;;;;15.48;10.57;;;8.90;99.90;;;;;;4996192;28;20469;-49
2022/10/21 05:28:39;;;;;;;13.85;10.75;;;8.90;99.90;;;;;;4994715;28;20030;-49
2022/10/21 05:31:05;;;;;;;13.35;10.57;;;8.90;99.90;;;;;;4998056;28;20040;-50
2022/10/21 05:33:30;;;;;;;15.07;10.88;;;8.90;99.90;;;;;;5000050;28;20658;-50
2022/10/21 05:36:00;;;;;;;19.27;10.68;;;8.80;99.90;;;;;;4999501;28;20113;-51
2022/10/21 05:38:27;;;;;;;14.75;10.27;;;8.90;99.90;;;;;;4999401;28;20511;-52
2022/10/21 05:40:52;;;;;;;15.98;10.48;;;8.90;99.90;;;;;;5000719;28;20018;-49
2022/10/21 05:43:18;;;;;;;19.73;10.88;;;8.80;99.90;;;;;;4995969;28;20029;-51
2022/10/21 05:45:44;;;;;;;16.25;10.80;;;8.80;99.90;;;;;;4996494;28;20022;-51
2022/10/21 05:48:09;;;;;;;15.48;11.18;;;8.80;99.90;;;;;;4998642;28;20029;-50
2022/10/21 05:50:35;;;;;;;15.75;12.65;;;8.80;99.90;;;;;;4994647;28;20018;-49
2022/10/21 05:53:00;;;;;;;18.02;12.20;;;8.80;99.90;;;;;;4997346;28;20573;-49
2022/10/21 05:55:26;;;;;;;22.65;14.32;;;8.90;99.90;;;;;;4997536;28;20022;-51
2022/10/21 05:57:51;;;;;;;17.75;13.10;;;8.80;99.90;;;;;;4996330;28;20089;-49
2022/10/21 06:00:17;;;;;;;14.07;11.63;;;8.80;99.90;;;;;;4997109;28;20045;-49
2022/10/21 06:02:42;;;;;;;17.83;11.82;;;8.80;99.90;;;;;;4995941;28;20052;-49
2022/10/21 06:05:08;;;;;;;13.60;11.25;;;8.90;99.90;;;;;;4997673;28;20484;-51
2022/10/21 06:07:34;;;;;;;15.18;12.25;;;8.90;99.90;;;;;;5002261;28;20060;-49
2022/10/21 06:09:59;;;;;;;14.30;10.52;;;8.90;99.90;;;;;;4988611;28;20035;-50
2022/10/21 06:12:25;;;;;;;14.75;11.40;;;8.90;99.90;;;;;;4998730;28;20018;-49
2022/10/21 06:14:51;;;;;;;17.35;10.88;;;8.90;99.90;;;;;;4992969;28;20026;-51
2022/10/21 06:17:16;;;;;;;14.63;11.43;;;8.90;99.90;;;;;;5002937;28;20068;-49
2022/10/21 06:19:42;;;;;;;18.13;11.10;;;8.90;99.90;;;;;;4992559;28;20420;-49
2022/10/21 06:22:07;;;;;;;15.40;11.20;;;8.90;99.90;;;;;;5002225;28;20061;-50
2022/10/21 06:24:33;;;;;;;16.13;10.93;;;8.90;99.90;;;;;;5003423;28;20030;-51
2022/10/21 06:26:58;;;;;;;15.60;11.13;;;8.90;99.90;;;;;;5001475;28;20066;-49
2022/10/21 06:29:24;;;;;;;15.25;11.45;;;8.90;99.90;;;;;;5004150;28;20053;-49
2022/10/21 06:31:49;;;;;;;15.07;11.18;;;8.90;99.90;;;;;;5004277;28;20385;-51
2022/10/21 06:34:15;;;;;;;18.40;11.73;;;8.90;99.90;;;;;;5003136;28;20091;-50
2022/10/21 06:36:40;;;;;;;16.15;11.35;;;8.90;99.90;;;;;;5004342;28;20388;-49
2022/10/21 06:39:07;;;;;;;18.60;12.70;;;9.00;99.90;;;;;;5002144;28;20164;-49
2022/10/21 06:41:33;;;;;;;14.55;10.95;;;9.00;99.90;;;;;;5003833;28;20018;-49
2022/10/21 06:43:58;;;;;;;17.67;12.00;;;9.00;99.90;;;;;;5002476;28;20083;-50
2022/10/21 06:46:24;;;;;;;13.98;11.45;;;9.00;99.90;;;;;;5003818;28;20144;-50
2022/10/21 06:48:50;;;;;;;17.38;11.05;;;9.00;99.90;;;;;;5002400;28;20034;-51
2022/10/21 06:51:21;;;;;;;16.02;12.13;;;9.10;99.90;;;;;;5002563;28;20101;-48
2022/10/21 06:53:51;;;;;;;17.95;11.82;;;9.10;99.90;;;;;;5002805;28;20026;-55
2022/10/21 06:56:18;;;;;;;14.82;12.27;;;9.10;99.90;;;;;;5002393;28;20141;-52
2022/10/21 06:58:46;;;;;;;14.63;11.00;;;9.10;99.90;;;;;;5002650;28;20025;-52
2022/10/21 07:01:16;;;;;;;16.45;12.02;;;9.10;99.90;;;;;;4999911;28;20026;-49
2022/10/21 07:03:41;;;;;;;18.00;11.75;;;9.20;99.90;;;;;;5000530;28;20026;-52
2022/10/21 07:06:07;;;;;;;19.60;12.05;;;9.20;99.90;;;;;;5004174;28;20504;-48
2022/10/21 07:08:33;;;;;;;22.88;12.32;;;9.20;99.90;;;;;;5000337;28;20042;-49
2022/10/21 07:10:59;;;;;;;19.73;11.75;;;9.30;99.90;;;;;;5001721;28;20031;-51
2022/10/21 07:13:24;;;;;;;17.65;13.35;;;9.30;99.90;;;;;;5004781;28;20101;-52
2022/10/21 07:16:11;;;;;;;20.85;13.57;;;9.30;99.90;;;;;;5000323;28;20062;-51
2022/10/21 07:18:36;;;;;;;17.73;12.90;;;9.40;99.90;;;;;;5003753;28;20432;-52
2022/10/21 07:21:08;;;;;;;17.00;12.93;;;9.40;99.90;;;;;;5002046;28;20030;-49
2022/10/21 07:23:34;;;;;;;18.17;12.57;;;9.40;99.90;;;;;;5003681;28;20467;-48
2022/10/21 07:26:04;;;;;;;16.40;12.98;;;9.50;99.90;;;;;;5016679;28;20019;-48
2022/10/21 07:28:29;;;;;;;20.15;13.23;;;9.50;99.90;;;;;;5003766;28;20018;-48
2022/10/21 07:30:55;;;;;;;22.55;13.48;;;9.50;99.90;;;;;;5001384;28;20097;-51
2022/10/21 07:33:21;;;;;;;18.58;12.23;;;9.50;99.90;;;;;;5001107;28;20390;-49
2022/10/21 07:35:46;;;;;;;25.05;12.80;;;9.60;99.90;;;;;;5001214;28;20011;-51
2022/10/21 07:38:12;;;;;;;19.65;12.45;;;9.50;99.90;;;;;;5033136;23;20038;-52
2022/10/21 07:40:40;;;;;;;18.27;12.85;;;9.50;99.90;;;;;;5023985;28;20054;-56
2022/10/21 07:43:05;;;;;;;18.20;11.35;;;9.50;99.90;;;;;;5020553;28;20068;-53
2022/10/21 07:45:31;;;;;;;17.85;12.43;;;9.50;99.90;;;;;;5022785;28;20491;-56
2022/10/21 07:47:57;;;;;;;18.17;12.52;;;9.60;99.90;;;;;;5015558;28;20150;-51
2022/10/21 07:50:22;;;;;;;15.23;12.07;;;9.60;99.90;;;;;;5000758;28;20030;-55
2022/10/21 07:52:48;;;;;;;17.70;12.07;;;9.60;99.90;;;;;;5002466;28;20106;-54
2022/10/21 07:55:15;;;;;;;17.63;11.88;;;9.60;99.90;;;;;;5005247;28;20020;-55
2022/10/21 07:57:41;;;;;;;18.77;13.10;;;9.70;99.90;;;;;;5006239;28;20014;-52
2022/10/21 08:00:09;;;;;;;17.08;12.77;;;9.70;99.90;;;;;;5004982;28;20049;-53
2022/10/21 08:02:36;;;;;;;16.85;12.32;;;9.70;99.90;;;;;;5003553;28;20072;-51
2022/10/21 08:05:02;;;;;;;17.42;12.15;;;9.70;99.90;;;;;;5002508;28;20033;-56
2022/10/21 08:07:30;;;;;;;19.73;12.07;;;9.80;99.90;;;;;;5004038;28;20392;-56
2022/10/21 08:09:56;;;;;;;17.67;12.73;;;9.70;99.90;;;;;;5005030;28;20053;-56
2022/10/21 08:12:22;;;;;;;18.88;12.75;;;9.70;99.90;;;;;;5001404;28;20030;-52
2022/10/21 08:14:48;;;;;;;16.92;12.20;;;9.70;99.90;;;;;;5006525;28;20472;-52
2022/10/21 08:17:14;;;;;;;17.77;12.70;;;9.80;99.90;;;;;;5000401;28;20029;-52
2022/10/21 08:19:39;;;;;;;22.58;13.73;;;9.80;99.90;;;;;;5006981;28;20025;-51
2022/10/21 08:22:05;;;;;;;17.20;13.30;;;9.80;99.90;;;;;;5004118;28;20029;-54
2022/10/21 08:24:31;;;;;;;18.45;12.88;;;9.80;99.90;;;;;;5007863;28;20140;-55
2022/10/21 08:26:57;;;;;;;22.17;13.50;;;9.90;99.90;;;;;;5004906;28;20759;-53
2022/10/21 08:29:22;;;;;;;19.15;13.82;;;10.10;99.90;;;;;;5001814;28;20025;-53
2022/10/21 08:31:48;;;;;;;19.55;12.85;;;10.20;99.90;;;;;;5005950;28;20026;-51
2022/10/21 08:34:13;;;;;;;18.95;13.80;;;10.20;99.90;;;;;;4999896;28;20029;-52
2022/10/21 08:36:39;;;;;;;21.70;15.07;;;10.30;99.90;;;;;;5006204;28;20013;-51
2022/10/21 08:39:05;;;;;;;25.80;14.85;;;10.30;99.90;;;;;;5003864;28;20032;-57
2022/10/21 08:41:37;;;;;;;21.73;15.30;;;10.40;99.90;;;;;;5007479;28;20026;-54
2022/10/21 08:44:12;;;;;;;19.27;14.25;;;10.50;99.90;;;;;;5003653;28;20036;-55
2022/10/21 08:46:52;;;;;;;18.73;14.20;;;10.50;99.90;;;;;;5003376;28;20044;-55
2022/10/21 08:49:28;;;;;;;19.90;14.05;;;10.60;99.90;;;;;;4996742;28;20026;-54
2022/10/21 08:52:04;;;;;;;17.88;14.38;;;10.60;99.90;;;;;;4998119;28;20399;-55
2022/10/21 08:54:42;;;;;;;19.17;15.30;;;10.70;99.90;;;;;;5003777;28;20014;-53
2022/10/21 08:57:10;;;;;;;19.63;14.25;;;10.80;99.90;;;;;;5009316;28;20109;-53
2022/10/21 08:59:36;;;;;;;25.95;14.20;;;10.80;99.90;;;;;;5003963;28;20018;-54
2022/10/21 09:02:07;;;;;;;20.05;13.82;;;10.90;99.90;;;;;;5000644;28;20099;-51
2022/10/21 09:04:47;;;;;;;19.45;13.80;;;10.90;99.90;;;;;;5005982;28;20050;-50
2022/10/21 09:07:43;;;;;;;18.48;13.82;;;11.00;99.90;;;;;;5003277;28;20113;-50
2022/10/21 09:10:24;;;;;;;20.38;14.98;;;11.00;99.90;;;;;;5002446;28;20034;-53
2022/10/21 09:12:52;;;;;;;19.15;13.38;;;11.10;99.90;;;;;;5004389;28;20484;-53
2022/10/21 09:15:32;;;;;;;20.45;13.57;;;11.10;99.90;;;;;;5002791;28;20022;-52
2022/10/21 09:18:21;;;;;;;19.95;13.68;;;11.20;99.90;;;;;;5006132;28;20488;-51
2022/10/21 09:21:01;;;;;;;19.67;13.77;;;11.20;99.90;;;;;;5000635;28;20026;-54
2022/10/21 09:23:29;;;;;;;19.52;13.23;;;11.30;99.90;;;;;;4998584;28;20148;-55
2022/10/21 09:26:06;;;;;;;19.75;14.40;;;11.30;99.90;;;;;;4999143;28;20022;-52
2022/10/21 09:28:32;;;;;;;16.75;13.18;;;11.40;99.90;;;;;;5001926;28;20109;-53
2022/10/21 09:31:01;;;;;;;19.05;12.98;;;11.40;99.90;;;;;;5003290;28;20037;-50
2022/10/21 09:33:32;;;;;;;19.27;13.30;;;11.50;99.90;;;;;;5002574;28;20022;-54
2022/10/21 09:36:02;;;;;;;19.88;13.07;;;11.50;99.90;;;;;;5004817;28;20061;-52
2022/10/21 09:38:43;;;;;;;16.77;13.73;;;11.50;99.90;;;;;;5003312;28;20076;-51
2022/10/21 09:41:22;;;;;;;17.77;12.68;;;11.50;99.90;;;;;;5005086;28;20032;-59
2022/10/21 09:43:48;;;;;;;19.58;14.02;;;11.60;99.90;;;;;;5004308;28;20384;-54
2022/10/21 09:46:15;;;;;;;19.00;13.15;;;11.60;99.90;;;;;;4999127;28;20071;-51
2022/10/21 09:48:45;;;;;;;16.80;13.40;;;11.60;99.90;;;;;;5004820;28;20269;-51
2022/10/21 09:51:17;;;;;;;14.95;12.52;;;11.70;99.90;;;;;;4994418;28;20056;-58
2022/10/21 09:53:48;;;;;;;19.58;13.20;;;11.70;99.90;;;;;;5005757;28;20060;-51
2022/10/21 09:56:26;;;;;;;17.50;13.30;;;11.80;99.90;;;;;;5003907;28;20018;-53
2022/10/21 09:59:07;;;;;;;16.23;12.45;;;11.80;99.90;;;;;;5010495;28;20014;-51
2022/10/21 10:01:33;;;;;;;16.58;12.98;;;11.90;99.90;;;;;;5002429;28;20030;-51
2022/10/21 10:03:59;;;;;;;18.95;13.40;;;11.90;99.90;;;;;;5009209;28;20025;-50
2022/10/21 10:06:33;;;;;;;18.38;14.10;;;11.90;99.90;;;;;;4997049;28;20453;-50
2022/10/21 10:09:27;;;;;;;16.33;12.60;;;12.00;99.90;;;;;;5000766;28;20030;-51
2022/10/21 10:12:01;;;;;;;15.50;12.93;;;12.10;99.90;;;;;;4997983;28;20026;-50
2022/10/21 10:14:32;;;;;;;18.20;12.32;;;12.10;99.90;;;;;;4999987;28;20025;-50
2022/10/21 10:17:24;;;;;;;16.17;12.23;;;12.20;99.90;;;;;;5001283;28;20277;-55
2022/10/21 10:20:05;;;;;;;16.33;11.75;;;12.30;99.90;;;;;;5001463;28;20534;-50
2022/10/21 10:22:37;;;;;;;17.92;12.75;;;12.40;99.90;;;;;;5005135;28;20033;-50
2022/10/21 10:25:30;;;;;;;18.33;12.82;;;12.40;99.90;;;;;;5000153;28;20092;-51
2022/10/21 10:28:08;;;;;;;15.45;11.63;;;12.50;99.90;;;;;;4997605;28;20369;-50
2022/10/21 10:30:49;;;;;;;16.00;12.48;;;12.50;99.90;;;;;;5003557;28;20087;-53
2022/10/21 10:33:24;;;;;;;15.50;12.70;;;12.60;99.90;;;;;;4989508;28;20490;-54
2022/10/21 10:35:56;;;;;;;15.95;10.77;;;12.60;99.90;;;;;;5006073;28;20014;-54
2022/10/21 10:38:35;;;;;;;15.45;11.95;;;12.70;99.90;;;;;;4992115;28;20107;-52
2022/10/21 10:41:13;;;;;;;17.00;12.43;;;12.80;99.90;;;;;;5000383;28;20034;-55
2022/10/21 10:43:52;;;;;;;16.67;12.27;;;12.90;99.90;;;;;;5007188;28;20029;-54
2022/10/21 10:46:32;;;;;;;13.60;11.18;;;12.90;99.90;;;;;;4997243;28;20052;-52
2022/10/21 10:49:13;;;;;;;16.42;11.48;;;13.00;99.90;;;;;;5000008;28;20062;-51
2022/10/21 10:51:41;;;;;;;16.42;12.02;;;13.10;99.90;;;;;;4990542;28;20290;-50
2022/10/21 10:54:39;;;;;;;12.20;10.85;;;13.10;99.90;;;;;;5005409;28;20501;-51
2022/10/21 10:57:10;;;;;;;13.88;10.95;;;13.10;99.90;;;;;;4963396;28;20393;-52
2022/10/21 10:59:41;;;;;;;14.52;10.65;;;13.10;99.90;;;;;;5001981;28;20014;-54
2022/10/21 11:02:14;;;;;;;13.52;11.25;;;13.20;99.90;;;;;;4993730;28;20458;-51
2022/10/21 11:05:09;;;;;;;14.32;10.63;;;13.30;99.90;;;;;;5001486;28;20057;-52
2022/10/21 11:07:51;;;;;;;13.57;10.23;;;13.40;99.90;;;;;;4997639;28;20034;-51
2022/10/21 11:10:32;;;;;;;15.43;11.35;;;13.50;99.90;;;;;;4999225;28;20030;-53
2022/10/21 11:13:00;;;;;;;14.20;10.18;;;13.50;99.90;;;;;;5008008;28;20033;-54
2022/10/21 11:15:54;;;;;;;14.30;9.88;;;13.60;99.90;;;;;;5003792;28;20010;-51
2022/10/21 11:18:51;;;;;;;20.33;9.57;;;13.70;99.90;;;;;;4998386;28;20018;-54
2022/10/21 11:21:41;;;;;;;13.05;9.73;;;13.70;99.90;;;;;;4997786;28;20029;-55
2022/10/21 11:24:49;;;;;;;11.68;10.45;;;13.80;99.90;;;;;;5008942;28;20073;-53
2022/10/21 11:27:36;;;;;;;10.70;8.75;;;13.80;99.90;;;;;;4998112;28;20500;-54
2022/10/21 11:30:18;;;;;;;11.45;9.05;;;13.90;99.90;;;;;;5007548;28;20527;-54
2022/10/21 11:32:49;;;;;;;10.68;9.48;;;13.90;99.90;;;;;;4996972;28;20664;-52
2022/10/21 11:35:23;;;;;;;11.48;9.60;;;14.00;99.90;;;;;;4996227;28;20538;-51
2022/10/21 11:37:57;;;;;;;11.00;9.35;;;14.00;99.90;;;;;;4998636;28;20188;-55
2022/10/21 11:40:47;;;;;;;17.10;10.10;;;14.10;99.90;;;;;;5011451;28;20020;-57
2022/10/21 11:43:54;;;;;;;11.05;9.85;;;14.10;99.90;;;;;;5005955;28;20026;-51
2022/10/21 11:46:45;;;;;;;12.45;9.60;;;14.20;99.90;;;;;;4993165;28;20389;-51
2022/10/21 11:49:52;;;;;;;11.45;9.05;;;14.20;99.90;;;;;;5005397;28;20084;-52
2022/10/21 11:52:24;;;;;;;;;;;14.30;99.90;;;;;;4995531;28;20029;-51
2022/10/21 11:54:58;;;;;;;11.68;9.25;;;14.40;99.90;;;;;;4999262;28;20250;-53
2022/10/21 11:57:39;;;;;;;12.38;9.50;;;14.40;99.90;;;;;;5004542;28;20014;-53
2022/10/21 12:00:35;;;;;;;10.57;8.65;;;14.40;99.90;;;;;;5003746;28;20080;-52
2022/10/21 12:03:25;;;;;;;16.23;10.43;;;14.40;99.90;;;;;;4997502;28;20408;-50
2022/10/21 12:06:11;;;;;;;10.25;8.70;;;14.40;99.90;;;;;;5002115;28;20076;-50
2022/10/21 12:08:40;;;;;;;;;;;14.50;99.90;;;;;;5000734;28;20037;-54
2022/10/21 12:11:13;;;;;;;11.50;8.80;;;14.60;99.90;;;;;;5002014;28;20349;-55
2022/10/21 12:13:49;;;;;;;8.75;7.47;;;14.60;99.90;;;;;;5005699;28;20106;-52
2022/10/21 12:16:18;;;;;;;12.65;9.13;;;14.60;99.90;;;;;;4988296;28;20369;-51
2022/10/21 12:18:51;;;;;;;10.57;8.02;;;14.60;99.90;;;;;;4997601;28;20030;-54
2022/10/21 12:21:21;;;;;;;9.40;8.40;;;14.70;99.90;;;;;;4989602;28;20023;-54
2022/10/21 12:23:52;;;;;;;13.63;8.30;;;14.80;99.90;;;;;;4995373;28;20019;-52
2022/10/21 12:26:27;;;;;;;11.15;8.65;;;14.80;99.90;;;;;;4988955;28;20084;-51
2022/10/21 12:28:53;;;;;;;8.75;7.80;;;14.90;99.90;;;;;;4991131;28;20023;-54
2022/10/21 12:31:53;;;;;;;12.00;8.02;;;14.90;99.90;;;;;;4993032;28;20390;-53
2022/10/21 12:34:20;;;;;;;8.90;7.75;;;14.90;99.90;;;;;;4994276;28;20484;-51
2022/10/21 12:36:52;;;;;;;10.75;8.35;;;15.00;99.90;;;;;;4993998;28;20037;-51
2022/10/21 12:39:33;;;;;;;9.45;7.63;;;15.00;99.90;;;;;;4988816;28;20023;-56
2022/10/21 12:42:12;;;;;;;10.85;6.88;;;15.00;99.90;;;;;;4997283;28;20510;-51
2022/10/21 12:44:43;;;;;;;11.85;9.55;;;15.00;99.90;;;;;;4991044;28;20101;-52
2022/10/21 12:47:23;;;;;;;9.80;8.00;;;15.00;99.90;;;;;;4999105;28;20117;-53
2022/10/21 12:50:17;;;;;;;9.23;7.72;;;15.10;99.90;;;;;;4989864;28;20516;-54
2022/10/21 12:52:45;;;;;;;13.00;8.55;;;15.10;99.90;;;;;;4993324;28;20030;-52
2022/10/21 12:55:22;;;;;;;9.85;7.85;;;15.20;99.90;;;;;;4991225;28;20046;-55
2022/10/21 12:57:58;;;;;;;12.07;7.90;;;15.20;99.90;;;;;;4994533;28;20024;-56